createdAt,value
2022-07-25T00:01:52.410Z,7.80
2022-07-25T00:04:20.804Z,7.70
2022-07-25T00:06:49.551Z,9.75
2022-07-25T00:09:16.900Z,8.15
2022-07-25T00:11:44.317Z,7.57
2022-07-25T00:14:11.529Z,8.40
2022-07-25T00:16:40.095Z,7.57
2022-07-25T00:19:07.381Z,8.10
2022-07-25T00:21:34.554Z,6.95
2022-07-25T00:24:02.498Z,7.70
2022-07-25T00:26:29.811Z,8.32
2022-07-25T00:28:56.953Z,7.78
2022-07-25T00:31:24.572Z,8.63
2022-07-25T00:33:51.996Z,10.13
2022-07-25T00:36:19.341Z,7.95
2022-07-25T00:38:46.870Z,8.95
2022-07-25T00:41:14.125Z,8.23
2022-07-25T00:43:45.439Z,7.90
2022-07-25T00:46:18.962Z,8.30
2022-07-25T00:48:46.704Z,8.35
2022-07-25T00:51:16.340Z,9.43
2022-07-25T00:53:44.324Z,9.50
2022-07-25T00:56:11.900Z,9.10
2022-07-25T00:58:39.418Z,9.73
2022-07-25T01:01:06.630Z,9.38
2022-07-25T01:03:33.972Z,9.10
2022-07-25T01:06:01.358Z,8.95
2022-07-25T01:08:28.787Z,9.45
2022-07-25T01:10:56.038Z,8.27
2022-07-25T01:13:23.590Z,9.25
2022-07-25T01:15:50.692Z,9.00
2022-07-25T01:18:18.075Z,8.88
2022-07-25T01:20:45.550Z,8.88
2022-07-25T01:23:12.781Z,9.43
2022-07-25T01:25:40.006Z,8.93
2022-07-25T01:28:07.569Z,9.02
2022-07-25T01:30:34.805Z,8.05
2022-07-25T01:33:06.549Z,9.07
2022-07-25T01:35:37.930Z,9.10
2022-07-25T01:38:07.425Z,8.85
2022-07-25T01:40:34.720Z,7.78
2022-07-25T01:43:02.201Z,8.43
2022-07-25T01:45:29.511Z,8.75
2022-07-25T01:47:56.900Z,8.70
2022-07-25T01:50:24.535Z,8.77
2022-07-25T01:52:51.890Z,8.93
2022-07-25T01:55:19.156Z,8.95
2022-07-25T01:57:50.056Z,9.43
2022-07-25T02:00:18.112Z,9.35
2022-07-25T02:02:45.686Z,9.43
2022-07-25T02:05:14.831Z,9.18
2022-07-25T02:07:42.401Z,8.90
2022-07-25T02:10:09.809Z,9.82
2022-07-25T02:12:37.461Z,9.45
2022-07-25T02:15:05.140Z,9.07
2022-07-25T02:17:32.436Z,9.85
2022-07-25T02:19:59.865Z,8.30
2022-07-25T02:22:27.148Z,9.30
2022-07-25T02:24:54.335Z,9.50
2022-07-25T02:27:21.811Z,9.18
2022-07-25T02:29:49.050Z,9.13
2022-07-25T02:32:16.236Z,10.32
2022-07-25T02:34:43.812Z,10.05
2022-07-25T02:37:13.042Z,9.88
2022-07-25T02:39:40.489Z,10.00
2022-07-25T02:42:07.964Z,11.77
2022-07-25T02:44:35.093Z,10.30
2022-07-25T02:47:02.442Z,11.13
2022-07-25T02:49:29.914Z,11.48
2022-07-25T02:51:57.685Z,11.95
2022-07-25T02:54:25.135Z,11.30
2022-07-25T02:56:52.553Z,10.88
2022-07-25T02:59:19.884Z,11.70
2022-07-25T03:01:47.157Z,11.32
2022-07-25T03:04:15.230Z,11.25
2022-07-25T03:06:44.678Z,10.93
2022-07-25T03:09:11.811Z,11.15
2022-07-25T03:11:39.220Z,10.77
2022-07-25T03:14:08.766Z,10.90
2022-07-25T03:16:36.730Z,11.07
2022-07-25T03:19:04.343Z,10.52
2022-07-25T03:21:31.566Z,10.85
2022-07-25T03:23:58.747Z,10.73
2022-07-25T03:26:26.208Z,10.35
2022-07-25T03:28:53.714Z,11.27
2022-07-25T03:31:21.321Z,11.90
2022-07-25T03:33:48.793Z,12.38
2022-07-25T03:36:16.006Z,14.05
2022-07-25T03:38:43.246Z,13.40
2022-07-25T03:41:10.739Z,11.73
2022-07-25T03:43:38.000Z,11.32
2022-07-25T03:46:05.217Z,12.25
2022-07-25T03:48:32.796Z,12.85
2022-07-25T03:51:04.866Z,13.85
2022-07-25T03:53:54.534Z,12.48
2022-07-25T03:56:21.721Z,13.10
2022-07-25T03:58:49.109Z,12.57
2022-07-25T04:01:16.296Z,12.45
2022-07-25T04:03:43.934Z,12.98
2022-07-25T04:06:12.004Z,14.73
2022-07-25T04:08:39.509Z,13.00
2022-07-25T04:11:06.831Z,13.40
2022-07-25T04:13:34.250Z,13.35
2022-07-25T04:16:01.495Z,15.98
2022-07-25T04:18:31.415Z,14.88
2022-07-25T04:21:02.536Z,14.20
2022-07-25T04:23:30.081Z,15.75
2022-07-25T04:25:58.014Z,15.63
2022-07-25T04:28:25.729Z,15.10
2022-07-25T04:30:53.079Z,14.68
2022-07-25T04:33:21.087Z,15.73
2022-07-25T04:35:48.943Z,18.35
2022-07-25T04:38:16.219Z,18.63
2022-07-25T04:40:43.677Z,16.42
2022-07-25T04:43:11.149Z,15.00
2022-07-25T04:45:39.394Z,15.05
2022-07-25T04:48:06.993Z,15.88
2022-07-25T04:50:34.390Z,15.20
2022-07-25T04:53:01.564Z,14.55
2022-07-25T04:55:28.882Z,14.52
2022-07-25T04:57:56.407Z,14.05
2022-07-25T05:00:23.952Z,13.35
2022-07-25T05:02:51.804Z,12.45
2022-07-25T05:05:20.879Z,13.15
2022-07-25T05:07:49.527Z,11.73
2022-07-25T05:10:16.806Z,10.98
2022-07-25T05:12:44.225Z,11.55
2022-07-25T05:15:11.810Z,10.90
2022-07-25T05:17:39.049Z,10.73
2022-07-25T05:20:07.140Z,9.98
2022-07-25T05:22:34.474Z,9.20
2022-07-25T05:25:02.473Z,9.60
2022-07-25T05:27:29.803Z,9.60
2022-07-25T05:29:57.154Z,9.60
2022-07-25T05:32:24.331Z,10.02
2022-07-25T05:34:52.325Z,9.15
2022-07-25T05:37:19.883Z,10.30
2022-07-25T05:39:47.124Z,8.45
2022-07-25T05:42:14.723Z,8.57
2022-07-25T05:44:41.932Z,7.95
2022-07-25T05:47:13.014Z,8.07
2022-07-25T05:49:40.731Z,8.07
2022-07-25T05:52:12.581Z,7.40
2022-07-25T05:54:40.543Z,6.80
2022-07-25T05:57:07.920Z,7.03
2022-07-25T05:59:35.227Z,7.22
2022-07-25T06:02:02.700Z,7.60
2022-07-25T06:04:30.231Z,6.43
2022-07-25T06:06:57.649Z,5.80
2022-07-25T06:09:24.922Z,6.40
2022-07-25T06:12:00.413Z,4.85
2022-07-25T06:14:29.286Z,4.63
2022-07-25T06:16:57.328Z,4.60
2022-07-25T06:19:24.573Z,4.80
2022-07-25T06:21:52.122Z,4.32
2022-07-25T06:24:19.474Z,3.85
2022-07-25T06:26:47.001Z,4.00
2022-07-25T06:29:14.162Z,4.40
2022-07-25T06:31:41.907Z,3.92
2022-07-25T06:34:13.539Z,3.77
2022-07-25T06:36:40.638Z,3.55
2022-07-25T06:39:08.336Z,3.70
2022-07-25T06:41:37.971Z,3.38
2022-07-25T06:44:05.765Z,3.30
2022-07-25T06:46:33.601Z,4.07
2022-07-25T06:49:01.140Z,3.35
2022-07-25T06:51:28.361Z,3.53
2022-07-25T06:53:56.715Z,3.25
2022-07-25T06:56:23.953Z,3.17
2022-07-25T06:58:51.129Z,2.80
2022-07-25T07:01:18.591Z,3.80
2022-07-25T07:03:46.014Z,4.53
2022-07-25T07:06:13.387Z,3.17
2022-07-25T07:08:40.712Z,3.97
2022-07-25T07:11:07.895Z,3.17
2022-07-25T07:13:35.420Z,3.25
2022-07-25T07:16:03.721Z,3.28
2022-07-25T07:18:30.879Z,3.13
2022-07-25T07:20:58.100Z,3.20
2022-07-25T07:23:25.685Z,3.30
2022-07-25T07:25:56.374Z,2.55
2022-07-25T07:28:23.734Z,2.63
2022-07-25T07:31:16.160Z,2.75
2022-07-25T07:33:38.373Z,2.95
2022-07-25T07:36:06.317Z,2.67
2022-07-25T07:38:33.680Z,2.75
2022-07-25T07:41:00.961Z,2.90
2022-07-25T07:43:31.706Z,2.47
2022-07-25T07:46:01.484Z,2.70
2022-07-25T07:48:30.410Z,2.60
2022-07-25T07:50:58.375Z,2.50
2022-07-25T07:53:44.663Z,2.50
2022-07-25T07:56:12.371Z,2.63
2022-07-25T07:58:39.865Z,3.03
2022-07-25T08:01:07.100Z,2.65
2022-07-25T08:03:34.637Z,3.05
2022-07-25T08:06:01.841Z,3.20
2022-07-25T08:08:31.501Z,2.97
2022-07-25T08:10:59.947Z,2.50
2022-07-25T08:13:30.439Z,2.47
2022-07-25T08:15:59.671Z,2.50
2022-07-25T08:18:32.750Z,2.92
2022-07-25T08:23:29.428Z,3.70
2022-07-25T08:25:56.639Z,2.92
2022-07-25T08:28:23.778Z,2.33
2022-07-25T08:30:51.538Z,2.47
2022-07-25T08:33:18.748Z,2.80
2022-07-25T08:35:54.667Z,2.83
2022-07-25T08:38:24.131Z,2.70
2022-07-25T08:40:52.328Z,3.03
2022-07-25T08:43:20.046Z,3.20
2022-07-25T08:45:49.952Z,2.95
2022-07-25T08:48:18.983Z,2.85
2022-07-25T08:50:47.204Z,2.60
2022-07-25T08:53:32.544Z,3.63
2022-07-25T08:56:00.669Z,2.90
2022-07-25T08:58:28.127Z,2.50
2022-07-25T09:00:55.282Z,3.20
2022-07-25T09:03:22.514Z,3.05
2022-07-25T09:05:50.099Z,2.50
2022-07-25T09:08:18.137Z,3.58
2022-07-25T09:10:48.363Z,3.13
2022-07-25T09:13:16.603Z,2.80
2022-07-25T09:15:47.061Z,2.90
2022-07-25T09:18:18.318Z,3.03
2022-07-25T09:20:50.237Z,4.00
2022-07-25T09:23:36.573Z,3.58
2022-07-25T09:26:11.147Z,3.00
2022-07-25T09:28:44.047Z,3.28
2022-07-25T09:31:12.872Z,3.13
2022-07-25T09:33:56.396Z,3.30
2022-07-25T09:36:24.296Z,2.95
2022-07-25T09:39:02.170Z,3.45
2022-07-25T09:41:42.351Z,3.28
2022-07-25T09:44:30.355Z,3.45
2022-07-25T09:47:01.100Z,3.42
2022-07-25T09:49:42.589Z,3.50
2022-07-25T09:52:11.112Z,3.53
2022-07-25T09:54:41.194Z,3.60
2022-07-25T09:57:08.445Z,3.30
2022-07-25T09:59:37.041Z,3.28
2022-07-25T10:02:10.045Z,3.55
2022-07-25T10:04:44.988Z,3.20
2022-07-25T10:07:14.856Z,3.10
2022-07-25T10:09:50.271Z,3.47
2022-07-25T10:12:23.078Z,2.95
2022-07-25T10:15:12.995Z,3.13
2022-07-25T10:17:41.540Z,3.40
2022-07-25T10:20:10.327Z,3.15
2022-07-25T10:22:55.217Z,3.00
2022-07-25T10:25:24.168Z,3.17
2022-07-25T10:27:59.983Z,2.67
2022-07-25T10:30:33.601Z,3.28
2022-07-25T10:33:03.837Z,3.05
2022-07-25T10:35:31.586Z,2.72
2022-07-25T10:38:00.179Z,3.10
2022-07-25T10:40:42.162Z,3.20
2022-07-25T10:43:15.355Z,3.00
2022-07-25T10:46:10.475Z,2.95
2022-07-25T10:48:38.245Z,3.67
2022-07-25T10:51:12.817Z,3.25
2022-07-25T10:53:46.044Z,3.13
2022-07-25T10:56:21.120Z,3.30
2022-07-25T10:58:57.044Z,2.90
2022-07-25T11:01:28.435Z,3.28
2022-07-25T11:03:58.826Z,3.22
2022-07-25T11:06:37.450Z,2.95
2022-07-25T11:09:25.089Z,3.10
2022-07-25T11:11:57.373Z,3.05
2022-07-25T11:14:37.521Z,3.10
2022-07-25T11:17:12.365Z,3.25
2022-07-25T11:19:39.925Z,3.30
2022-07-25T11:22:08.428Z,2.97
2022-07-25T11:24:38.339Z,3.17
2022-07-25T11:27:09.853Z,2.85
2022-07-25T11:29:40.451Z,2.83
2022-07-25T11:32:10.830Z,2.67
2022-07-25T11:34:43.165Z,3.13
2022-07-25T11:37:13.320Z,2.72
2022-07-25T11:39:44.845Z,2.63
2022-07-25T11:42:18.086Z,2.70
2022-07-25T11:44:48.328Z,2.75
2022-07-25T11:47:34.726Z,2.80
2022-07-25T11:50:04.365Z,2.63
2022-07-25T11:52:37.190Z,3.03
2022-07-25T11:55:09.539Z,2.85
2022-07-25T11:57:41.917Z,2.83
2022-07-25T12:00:15.533Z,3.13
2022-07-25T12:02:43.369Z,2.85
2022-07-25T12:05:12.861Z,2.83
2022-07-25T12:07:41.585Z,2.60
2022-07-25T12:10:12.414Z,2.83
2022-07-25T12:12:50.225Z,3.25
2022-07-25T12:15:31.683Z,2.70
2022-07-25T12:18:00.079Z,3.00
2022-07-25T12:20:32.583Z,2.95
2022-07-25T12:23:07.431Z,3.20
2022-07-25T12:25:37.095Z,3.40
2022-07-25T12:28:04.753Z,2.75
2022-07-25T12:30:32.761Z,2.95
2022-07-25T12:33:01.351Z,3.10
2022-07-25T12:35:28.781Z,2.83
2022-07-25T12:37:55.985Z,2.92
2022-07-25T12:40:23.865Z,2.58
2022-07-25T12:42:51.557Z,3.10
2022-07-25T12:45:18.701Z,2.80
2022-07-25T12:47:47.477Z,2.85
2022-07-25T12:50:16.090Z,2.67
2022-07-25T12:52:44.310Z,2.42
2022-07-25T12:55:14.915Z,3.00
2022-07-25T12:57:42.356Z,2.80
2022-07-25T13:00:13.297Z,2.80
2022-07-25T13:02:41.258Z,2.83
2022-07-25T13:05:08.831Z,3.10
2022-07-25T13:07:36.614Z,3.40
2022-07-25T13:10:05.450Z,2.80
2022-07-25T13:12:32.772Z,2.75
2022-07-25T13:15:00.105Z,2.90
2022-07-25T13:17:28.123Z,2.60
2022-07-25T13:19:56.227Z,3.13
2022-07-25T13:22:24.340Z,2.90
2022-07-25T13:24:52.437Z,2.70
2022-07-25T13:27:21.479Z,3.00
2022-07-25T13:29:54.115Z,3.03
2022-07-25T13:32:22.785Z,2.83
2022-07-25T13:34:50.377Z,2.85
2022-07-25T13:37:17.707Z,4.60
2022-07-25T13:39:45.312Z,2.88
2022-07-25T13:42:12.808Z,2.75
2022-07-25T13:44:40.073Z,2.60
2022-07-25T13:47:07.588Z,3.00
2022-07-25T13:49:36.832Z,3.03
2022-07-25T13:52:04.769Z,3.42
2022-07-25T13:54:32.540Z,3.50
2022-07-25T13:56:59.740Z,3.65
2022-07-25T13:59:27.039Z,3.22
2022-07-25T14:01:54.406Z,3.47
2022-07-25T14:04:21.677Z,3.53
2022-07-25T14:06:52.158Z,3.20
2022-07-25T14:09:21.103Z,2.88
2022-07-25T14:11:48.980Z,3.17
2022-07-25T14:14:16.555Z,3.40
2022-07-25T14:16:44.111Z,3.20
2022-07-25T14:19:11.418Z,3.20
2022-07-25T14:21:38.854Z,3.78
2022-07-25T14:24:06.730Z,3.17
2022-07-25T14:26:35.229Z,3.28
2022-07-25T14:29:02.638Z,2.97
2022-07-25T14:31:30.443Z,2.85
2022-07-25T14:33:58.101Z,2.92
2022-07-25T14:36:25.470Z,3.03
2022-07-25T14:38:53.396Z,3.45
2022-07-25T14:41:20.577Z,2.90
2022-07-25T14:43:48.359Z,3.40
2022-07-25T14:46:15.931Z,3.10
2022-07-25T14:48:43.294Z,3.10
2022-07-25T14:51:11.014Z,3.35
2022-07-25T14:53:38.486Z,3.30
2022-07-25T14:56:06.453Z,3.25
2022-07-25T14:58:34.236Z,3.33
2022-07-25T15:01:02.656Z,3.22
2022-07-25T15:03:30.059Z,11.45
2022-07-25T15:05:57.512Z,5.20
2022-07-25T15:08:24.927Z,3.58
2022-07-25T15:10:52.169Z,3.25
2022-07-25T15:13:34.691Z,3.20
2022-07-25T15:16:03.082Z,2.80
2022-07-25T15:18:30.832Z,3.08
2022-07-25T15:20:58.285Z,2.83
2022-07-25T15:23:29.700Z,3.05
2022-07-25T15:26:03.301Z,2.88
2022-07-25T15:28:33.712Z,2.65
2022-07-25T15:31:01.499Z,2.45
2022-07-25T15:33:28.947Z,2.70
2022-07-25T15:35:56.455Z,2.90
2022-07-25T15:38:23.830Z,2.45
2022-07-25T15:40:51.137Z,3.13
2022-07-25T15:43:18.629Z,2.95
2022-07-25T15:45:46.262Z,2.97
2022-07-25T15:48:14.881Z,2.78
2022-07-25T15:50:44.866Z,3.33
2022-07-25T15:53:12.414Z,3.17
2022-07-25T15:55:40.912Z,2.42
2022-07-25T15:58:09.544Z,2.80
2022-07-25T16:00:37.552Z,3.03
2022-07-25T16:03:05.026Z,3.17
2022-07-25T16:05:32.463Z,3.00
2022-07-25T16:08:03.003Z,2.60
2022-07-25T16:10:31.872Z,2.72
2022-07-25T16:13:00.009Z,2.55
2022-07-25T16:15:28.073Z,2.17
2022-07-25T16:18:01.676Z,2.33
2022-07-25T16:20:33.885Z,2.58
2022-07-25T16:23:01.654Z,2.38
2022-07-25T16:25:29.481Z,2.30
2022-07-25T16:27:58.426Z,2.80
2022-07-25T16:30:26.189Z,2.47
2022-07-25T16:32:53.692Z,2.67
2022-07-25T16:35:21.620Z,2.60
2022-07-25T16:37:48.769Z,2.75
2022-07-25T16:40:16.252Z,2.55
2022-07-25T16:42:43.784Z,2.65
2022-07-25T16:45:11.399Z,2.10
2022-07-25T16:47:40.389Z,2.42
2022-07-25T16:50:08.488Z,2.58
2022-07-25T16:52:35.728Z,2.50
2022-07-25T16:55:02.985Z,2.55
2022-07-25T16:57:31.211Z,2.30
2022-07-25T16:59:58.632Z,2.40
2022-07-25T17:02:29.453Z,2.50
2022-07-25T17:04:57.897Z,2.65
2022-07-25T17:07:25.689Z,2.63
2022-07-25T17:09:53.454Z,2.50
2022-07-25T17:12:21.092Z,2.47
2022-07-25T17:14:48.697Z,3.22
2022-07-25T17:17:16.181Z,3.30
2022-07-25T17:19:44.119Z,3.40
2022-07-25T17:22:11.559Z,3.05
2022-07-25T17:24:39.225Z,2.70
2022-07-25T17:27:07.846Z,2.50
2022-07-25T17:29:35.218Z,2.72
2022-07-25T17:32:02.870Z,2.90
2022-07-25T17:34:30.428Z,3.50
2022-07-25T17:37:02.652Z,3.20
2022-07-25T17:39:33.632Z,3.42
2022-07-25T17:42:02.012Z,4.10
2022-07-25T17:44:29.221Z,4.30
2022-07-25T17:46:56.598Z,3.03
2022-07-25T17:49:24.150Z,2.40
2022-07-25T17:51:51.241Z,2.70
2022-07-25T17:54:18.472Z,2.80
2022-07-25T17:56:46.299Z,4.78
2022-07-25T17:59:13.799Z,3.42
2022-07-25T18:01:41.332Z,5.40
2022-07-25T18:04:09.555Z,6.80
2022-07-25T18:06:37.104Z,14.43
2022-07-25T18:09:04.786Z,6.28
2022-07-25T18:11:32.334Z,4.35
2022-07-25T18:13:59.612Z,4.35
2022-07-25T18:16:27.104Z,3.38
2022-07-25T18:18:55.923Z,2.95
2022-07-25T18:21:24.399Z,3.22
2022-07-25T18:23:52.325Z,3.00
2022-07-25T18:26:21.775Z,3.10
2022-07-25T18:28:48.966Z,2.97
2022-07-25T18:31:16.208Z,2.92
2022-07-25T18:33:43.716Z,3.40
2022-07-25T18:36:11.032Z,3.00
2022-07-25T18:38:38.292Z,3.42
2022-07-25T18:41:28.182Z,3.42
2022-07-25T18:43:55.424Z,3.42
2022-07-25T18:46:22.930Z,3.53
2022-07-25T18:48:50.726Z,4.60
2022-07-25T18:51:18.059Z,4.38
2022-07-25T18:53:48.194Z,3.38
2022-07-25T18:56:16.598Z,3.58
2022-07-25T18:58:44.153Z,3.30
2022-07-25T19:01:12.115Z,3.60
2022-07-25T19:03:40.633Z,4.07
2022-07-25T19:06:09.165Z,4.07
2022-07-25T19:08:36.708Z,4.43
2022-07-25T19:11:04.286Z,4.22
2022-07-25T19:13:48.932Z,4.30
2022-07-25T19:16:18.595Z,4.40
2022-07-25T19:18:46.149Z,4.20
2022-07-25T19:21:13.981Z,4.40
2022-07-25T19:23:41.600Z,4.10
2022-07-25T19:26:08.804Z,4.10
2022-07-25T19:28:36.384Z,5.40
2022-07-25T19:31:04.018Z,5.20
2022-07-25T19:33:35.812Z,5.25
2022-07-25T19:36:04.452Z,4.55
2022-07-25T19:38:32.428Z,4.78
2022-07-25T19:41:00.073Z,4.15
2022-07-25T19:43:27.359Z,4.13
2022-07-25T19:45:54.725Z,4.10
2022-07-25T19:48:23.984Z,4.30
2022-07-25T19:50:52.721Z,3.85
2022-07-25T19:53:22.139Z,4.50
2022-07-25T19:55:53.043Z,4.05
2022-07-25T19:58:20.279Z,4.30
2022-07-25T20:00:47.678Z,4.28
2022-07-25T20:03:15.695Z,5.18
2022-07-25T20:05:43.348Z,4.63
2022-07-25T20:08:12.338Z,4.55
2022-07-25T20:10:42.741Z,4.88
2022-07-25T20:13:09.998Z,4.90
2022-07-25T20:15:37.399Z,4.90
2022-07-25T20:18:04.896Z,4.88
2022-07-25T20:20:32.056Z,4.90
2022-07-25T20:22:59.541Z,5.03
2022-07-25T20:25:26.641Z,4.88
2022-07-25T20:27:53.994Z,4.60
2022-07-25T20:30:21.956Z,4.70
2022-07-25T20:32:49.515Z,4.57
2022-07-25T20:35:16.699Z,5.35
2022-07-25T20:37:44.160Z,5.35
2022-07-25T20:40:12.143Z,4.85
2022-07-25T20:42:39.534Z,4.68
2022-07-25T20:45:07.629Z,4.90
2022-07-25T20:47:34.830Z,4.75
2022-07-25T20:50:02.304Z,5.18
2022-07-25T20:52:30.435Z,4.82
2022-07-25T20:54:57.680Z,4.65
2022-07-25T20:57:24.939Z,4.88
2022-07-25T20:59:52.373Z,4.70
2022-07-25T21:02:19.616Z,4.60
2022-07-25T21:04:48.521Z,4.63
2022-07-25T21:07:16.851Z,4.00
2022-07-25T21:09:44.554Z,5.13
2022-07-25T21:12:11.906Z,4.68
2022-07-25T21:14:39.378Z,4.45
2022-07-25T21:17:06.689Z,4.72
2022-07-25T21:19:33.952Z,5.03
2022-07-25T21:22:02.100Z,3.95
2022-07-25T21:24:29.298Z,4.50
2022-07-25T21:26:56.423Z,4.07
2022-07-25T21:29:23.921Z,4.78
2022-07-25T21:31:51.056Z,4.60
2022-07-25T21:34:18.464Z,5.55
2022-07-25T21:36:48.108Z,5.40
2022-07-25T21:39:16.309Z,4.78
2022-07-25T21:41:44.908Z,4.88
2022-07-25T21:44:14.296Z,4.82
2022-07-25T21:46:42.278Z,4.90
2022-07-25T21:49:41.437Z,4.75
2022-07-25T21:52:13.878Z,5.15
2022-07-25T21:54:42.577Z,4.80
2022-07-25T21:57:13.754Z,5.45
2022-07-25T21:59:42.977Z,4.78
2022-07-25T22:05:15.088Z,5.60
2022-07-25T22:07:43.715Z,5.70
2022-07-25T22:10:13.196Z,6.07
2022-07-25T22:12:41.656Z,6.00
2022-07-25T22:15:11.947Z,6.72
2022-07-25T22:17:48.300Z,6.20
2022-07-25T22:20:19.213Z,6.57
2022-07-25T22:22:48.021Z,5.80
2022-07-25T22:25:16.353Z,6.20
2022-07-25T22:27:44.387Z,6.47
2022-07-25T22:30:18.817Z,5.85
2022-07-25T22:32:48.488Z,6.80
2022-07-25T22:35:16.104Z,6.93
2022-07-25T22:37:44.649Z,5.78
2022-07-25T22:40:13.108Z,6.38
2022-07-25T22:42:40.651Z,6.13
2022-07-25T22:45:08.953Z,6.93
2022-07-25T22:47:36.963Z,6.40
2022-07-25T22:50:05.487Z,5.72
2022-07-25T22:52:35.500Z,6.07
2022-07-25T22:55:03.453Z,6.53
2022-07-25T22:57:37.033Z,6.13
2022-07-25T23:00:11.342Z,6.47
2022-07-25T23:02:39.549Z,6.53
2022-07-25T23:05:07.963Z,6.28
2022-07-25T23:07:35.708Z,6.68
2022-07-25T23:10:03.127Z,6.50
2022-07-25T23:12:30.834Z,6.63
2022-07-25T23:14:58.066Z,6.40
2022-07-25T23:17:25.683Z,6.55
2022-07-25T23:19:54.776Z,6.35
2022-07-25T23:22:24.205Z,6.32
2022-07-25T23:24:51.579Z,6.60
2022-07-25T23:27:19.219Z,6.90
2022-07-25T23:29:46.584Z,6.60
2022-07-25T23:32:13.782Z,6.50
2022-07-25T23:34:41.362Z,7.10
2022-07-25T23:37:08.662Z,5.80
2022-07-25T23:39:35.881Z,6.30
2022-07-25T23:42:04.150Z,6.88
2022-07-25T23:47:39.054Z,7.57
2022-07-25T23:50:08.146Z,7.85
2022-07-25T23:52:35.453Z,8.40
2022-07-25T23:55:03.241Z,8.95
2022-07-25T23:57:30.689Z,9.30
2022-07-25T23:59:58.046Z,9.63
